< Typhoon 197825 1978 Season Typhoon 197827 >
Typhoon 197826 (RITA)
General InformationTrack Information on Google MapsDetailed Wind Information || Disaster Info.ResourceGoogle EarthGE AnimationAtom FeedGeoJSON
Detalied Best Track (Time Zone = UTC)
Year Month Day Hour Lat. Long. Pressure (hPa) Wind (kt) Class Image Chart
1978 10 17 18 10.5 175.0 1004 0 2 -- Chart
1978 10 18 00 10.5 174.5 1000 40 3 -- Chart
1978 10 18 06 10.6 173.3 1000 35 3 -- Chart
1978 10 18 12 10.7 172.2 1000 35 3 -- Chart
1978 10 18 18 11.0 171.1 998 35 3 -- Chart
1978 10 19 00 11.0 170.0 996 50 4 -- Chart
1978 10 19 06 11.2 168.8 996 50 4 -- Chart
1978 10 19 12 11.3 167.3 994 50 4 -- Chart
1978 10 19 18 11.5 165.8 975 50 4 -- Chart
1978 10 20 00 11.7 164.3 960 70 5 -- Chart
1978 10 20 06 11.7 162.7 965 70 5 -- Chart
1978 10 20 12 11.7 161.0 960 70 5 -- Chart
1978 10 20 18 11.5 159.5 950 70 5 -- Chart
1978 10 21 00 11.4 158.2 935 85 5 -- Chart
1978 10 21 06 11.4 156.8 935 90 5 -- Chart
1978 10 21 12 11.3 155.7 935 90 5 -- Chart
1978 10 21 18 11.2 154.6 930 90 5 -- Chart
1978 10 22 00 11.3 153.5 915 90 5 -- Chart
1978 10 22 06 11.4 152.3 910 100 5 -- Chart
1978 10 22 12 11.6 151.3 905 100 5 -- Chart
1978 10 22 18 11.7 149.9 895 110 5 -- Chart
1978 10 23 00 11.7 148.5 885 110 5 -- Chart
1978 10 23 06 11.8 147.1 885 110 5 -- Chart
1978 10 23 12 12.0 145.6 885 120 5 -- Chart
1978 10 23 18 12.0 143.6 895 110 5 -- Chart
1978 10 24 00 12.0 141.8 900 110 5 -- Chart
1978 10 24 06 12.3 139.9 900 110 5 -- Chart
1978 10 24 12 12.4 137.8 895 110 5 -- Chart
1978 10 24 18 12.7 135.3 890 110 5 -- Chart
1978 10 25 00 12.8 133.1 885 120 5 -- Chart
1978 10 25 06 12.8 131.0 880 120 5 -- Chart
1978 10 25 12 13.3 128.9 885 120 5 -- Chart
1978 10 25 18 13.8 127.0 890 110 5 -- Chart
1978 10 26 00 14.0 125.2 895 110 5 -- Chart
1978 10 26 06 14.3 123.7 900 110 5 -- Chart
1978 10 26 12 14.7 122.6 905 110 5 -- Chart
1978 10 26 18 15.3 121.0 945 100 5 -- Chart
1978 10 27 00 16.1 119.8 975 85 5 -- Chart
1978 10 27 06 16.7 118.2 980 80 5 -- Chart
1978 10 27 12 16.9 117.4 985 70 5 -- Chart
1978 10 27 18 17.1 116.4 990 55 4 -- Chart
1978 10 28 00 16.9 115.5 990 55 4 -- Chart
1978 10 28 06 16.6 115.1 990 50 4 -- Chart
1978 10 28 12 16.1 114.8 990 50 4 -- Chart
1978 10 28 18 15.8 114.3 992 45 3 -- Chart
1978 10 29 00 15.3 114.0 992 40 3 -- Chart
1978 10 29 06 14.7 113.0 994 40 3 -- Chart
1978 10 29 12 14.0 112.0 996 35 3 -- Chart
1978 10 29 18 13.0 111.0 1000 0 2 -- Chart
1978 10 30 00 12.0 110.0 1008 0 2 -- Chart
1978 10 30 06 12.0 108.5 1008 0 2 -- Chart
Japan Meteorological Agency Best Track Data | Correction Date : 1992-10-21
< Typhoon 197825 1978 Season Typhoon 197827 >

Help